createdAt,value
2018-09-25T00:01:28.715Z,76.47
2018-09-25T00:03:46.456Z,76.73
2018-09-25T00:06:04.330Z,76.72
2018-09-25T00:08:22.172Z,76.88
2018-09-25T00:10:40.031Z,76.47
2018-09-25T00:12:57.755Z,77.27
2018-09-25T00:15:15.563Z,76.95
2018-09-25T00:17:33.404Z,76.96
2018-09-25T00:19:51.188Z,76.66
2018-09-25T00:22:09.144Z,77.42
2018-09-25T00:24:27.008Z,77.96
2018-09-25T00:26:44.937Z,77.08
2018-09-25T00:29:02.845Z,77.56
2018-09-25T00:31:20.717Z,77.08
2018-09-25T00:33:38.567Z,78.41
2018-09-25T00:35:56.433Z,78.37
2018-09-25T00:38:14.123Z,78.36
2018-09-25T00:40:32.056Z,78.25
2018-09-25T00:42:50.025Z,78.02
2018-09-25T00:45:07.815Z,77.72
2018-09-25T00:47:25.635Z,77.92
2018-09-25T00:49:43.411Z,77.94
2018-09-25T00:52:01.234Z,78.55
2018-09-25T00:54:19.221Z,79.11
2018-09-25T00:56:37.037Z,78.62
2018-09-25T00:58:54.868Z,79.17
2018-09-25T01:01:12.647Z,78.66
2018-09-25T01:03:30.430Z,79.19
2018-09-25T01:05:48.422Z,79.14
2018-09-25T01:08:06.331Z,79.04
2018-09-25T01:10:24.102Z,79.09
2018-09-25T01:12:42.066Z,78.76
2018-09-25T01:14:59.987Z,78.63
2018-09-25T01:17:17.999Z,78.87
2018-09-25T01:19:35.931Z,78.04
2018-09-25T01:21:53.696Z,78.21
2018-09-25T01:24:11.580Z,78.59
2018-09-25T01:26:29.497Z,78.88
2018-09-25T01:28:47.427Z,77.93
2018-09-25T01:31:05.295Z,77.95
2018-09-25T01:33:23.236Z,78.39
2018-09-25T01:35:41.220Z,78.43
2018-09-25T01:37:59.039Z,78.81
2018-09-25T01:40:16.863Z,79.44
2018-09-25T01:42:34.916Z,78.45
2018-09-25T01:44:52.792Z,78.14
2018-09-25T01:47:10.757Z,78.67
2018-09-25T01:49:28.618Z,78.51
2018-09-25T01:51:46.583Z,78.40
2018-09-25T01:54:04.459Z,78.51
2018-09-25T01:56:22.206Z,79.43
2018-09-25T01:58:40.030Z,78.95
2018-09-25T02:00:57.870Z,77.82
2018-09-25T02:03:15.765Z,78.65
2018-09-25T02:05:33.699Z,78.20
2018-09-25T02:07:51.571Z,79.00
2018-09-25T02:10:09.457Z,78.83
2018-09-25T02:12:27.145Z,79.04
2018-09-25T02:14:45.100Z,79.05
2018-09-25T02:17:03.031Z,78.74
2018-09-25T02:19:21.043Z,78.96
2018-09-25T02:21:38.980Z,79.50
2018-09-25T02:23:56.775Z,79.30
2018-09-25T02:26:14.704Z,79.97
2018-09-25T02:28:32.680Z,79.54
2018-09-25T02:30:50.634Z,79.97
2018-09-25T02:33:08.647Z,80.25
2018-09-25T02:35:26.564Z,79.76
2018-09-25T02:37:44.396Z,79.64
2018-09-25T02:40:02.256Z,80.41
2018-09-25T02:42:20.208Z,80.41
2018-09-25T02:44:38.172Z,79.57
2018-09-25T02:46:56.203Z,79.71
2018-09-25T02:49:14.179Z,79.70
2018-09-25T02:51:32.181Z,78.48
2018-09-25T02:53:49.914Z,78.88
2018-09-25T02:56:07.874Z,78.68
2018-09-25T02:58:25.911Z,79.24
2018-09-25T03:00:43.719Z,78.62
2018-09-25T03:03:01.727Z,79.70
2018-09-25T03:05:19.489Z,79.33
2018-09-25T03:07:37.423Z,80.59
2018-09-25T03:09:55.203Z,80.13
2018-09-25T03:12:13.139Z,80.06
2018-09-25T03:14:31.143Z,79.68
2018-09-25T03:16:49.167Z,79.66
2018-09-25T03:19:06.930Z,79.31
2018-09-25T03:21:24.888Z,79.66
2018-09-25T03:23:42.673Z,79.23
2018-09-25T03:26:00.569Z,79.46
2018-09-25T03:28:18.449Z,78.63
2018-09-25T03:30:36.394Z,79.21
2018-09-25T03:32:54.291Z,78.21
2018-09-25T03:35:12.162Z,78.79
2018-09-25T03:37:30.095Z,78.80
2018-09-25T03:39:47.872Z,78.84
2018-09-25T03:42:05.682Z,78.41
2018-09-25T03:44:23.625Z,78.24
2018-09-25T03:46:41.552Z,78.89
2018-09-25T03:48:59.520Z,78.12
2018-09-25T03:51:17.452Z,78.31
2018-09-25T03:53:35.466Z,78.63
2018-09-25T03:55:53.334Z,79.26
2018-09-25T03:58:11.311Z,79.31
2018-09-25T04:00:29.357Z,78.57
2018-09-25T04:02:47.330Z,79.14
2018-09-25T04:05:05.318Z,78.00
2018-09-25T04:07:23.319Z,79.16
2018-09-25T04:09:41.294Z,79.36
2018-09-25T04:11:59.204Z,79.58
2018-09-25T04:14:17.011Z,78.95
2018-09-25T04:16:34.779Z,79.82
2018-09-25T04:18:52.814Z,79.67
2018-09-25T04:21:10.888Z,79.39
2018-09-25T04:23:28.672Z,79.68
2018-09-25T04:25:46.414Z,79.56
2018-09-25T04:28:04.465Z,79.23
2018-09-25T04:30:22.374Z,81.15
2018-09-25T04:32:40.287Z,81.32
2018-09-25T04:34:58.849Z,78.73
2018-09-25T04:37:16.963Z,77.79
2018-09-25T04:39:34.860Z,78.83
2018-09-25T04:41:52.828Z,79.01
2018-09-25T04:44:10.799Z,79.34
2018-09-25T04:46:28.759Z,78.99
2018-09-25T04:48:46.736Z,79.33
2018-09-25T04:51:04.739Z,79.63
2018-09-25T04:53:22.764Z,79.59
2018-09-25T04:55:40.623Z,79.17
2018-09-25T04:57:58.582Z,78.40
2018-09-25T05:00:16.439Z,79.45
2018-09-25T05:02:34.376Z,79.58
2018-09-25T05:04:52.263Z,78.93
2018-09-25T05:07:10.311Z,78.93
2018-09-25T05:09:28.203Z,78.77
2018-09-25T05:11:46.391Z,79.45
2018-09-25T05:14:04.366Z,79.50
2018-09-25T05:16:22.302Z,78.98
2018-09-25T05:18:40.303Z,79.16
2018-09-25T05:20:58.174Z,78.76
2018-09-25T05:23:16.176Z,79.58
2018-09-25T05:25:33.974Z,79.80
2018-09-25T05:27:51.949Z,80.47
2018-09-25T05:30:09.827Z,80.06
2018-09-25T05:32:27.784Z,80.68
2018-09-25T05:34:45.770Z,79.78
2018-09-25T05:37:03.760Z,80.24
2018-09-25T05:39:21.498Z,80.19
2018-09-25T05:41:39.448Z,80.25
2018-09-25T05:43:57.454Z,80.73
2018-09-25T05:46:15.427Z,80.45
2018-09-25T05:48:33.347Z,79.57
2018-09-25T05:50:51.278Z,79.59
2018-09-25T05:53:09.147Z,80.44
2018-09-25T05:55:27.061Z,80.42
2018-09-25T05:57:44.899Z,79.78
2018-09-25T06:00:02.834Z,80.30
2018-09-25T06:02:20.679Z,80.07
2018-09-25T06:04:38.546Z,81.31
2018-09-25T06:06:56.574Z,80.98
2018-09-25T06:09:14.582Z,81.15
2018-09-25T06:11:32.556Z,80.57
2018-09-25T06:13:50.239Z,80.82
2018-09-25T06:16:08.172Z,80.50
2018-09-25T06:18:26.064Z,80.40
2018-09-25T06:20:43.835Z,81.17
2018-09-25T06:23:01.794Z,80.48
2018-09-25T06:25:19.760Z,80.33
2018-09-25T06:27:37.632Z,80.69
2018-09-25T06:29:55.435Z,79.83
2018-09-25T06:32:13.295Z,79.95
2018-09-25T06:34:31.222Z,80.63
2018-09-25T06:36:48.881Z,79.33
2018-09-25T06:39:06.730Z,78.34
2018-09-25T06:41:24.602Z,76.22
2018-09-25T06:43:42.466Z,73.87
2018-09-25T06:46:00.413Z,72.08
2018-09-25T06:48:18.307Z,70.83
2018-09-25T06:50:36.215Z,69.29
2018-09-25T06:52:54.029Z,67.15
2018-09-25T06:55:12.005Z,67.25
2018-09-25T06:57:29.955Z,65.62
2018-09-25T06:59:47.907Z,63.93
2018-09-25T07:02:05.830Z,63.51
2018-09-25T07:04:23.732Z,62.30
2018-09-25T07:06:41.652Z,59.92
2018-09-25T07:08:59.368Z,58.70
2018-09-25T07:11:17.393Z,59.51
2018-09-25T07:13:35.282Z,58.10
2018-09-25T07:15:53.227Z,59.74
2018-09-25T07:18:11.162Z,58.53
2018-09-25T07:20:29.080Z,58.01
2018-09-25T07:22:47.026Z,56.86
2018-09-25T07:25:05.029Z,57.50
2018-09-25T07:27:22.903Z,57.03
2018-09-25T07:29:40.827Z,56.41
2018-09-25T07:31:58.775Z,56.96
2018-09-25T07:34:16.488Z,56.28
2018-09-25T07:36:34.251Z,54.42
2018-09-25T07:38:52.024Z,54.09
2018-09-25T07:41:09.873Z,53.79
2018-09-25T07:43:27.514Z,54.81
2018-09-25T07:45:45.463Z,53.55
2018-09-25T07:48:03.314Z,53.65
2018-09-25T07:50:21.308Z,53.22
2018-09-25T07:52:39.289Z,53.49
2018-09-25T07:54:57.735Z,51.88
2018-09-25T07:57:15.571Z,52.16
2018-09-25T07:59:33.450Z,50.86
2018-09-25T08:01:51.299Z,51.74
2018-09-25T08:04:09.070Z,51.55
2018-09-25T08:06:26.934Z,50.02
2018-09-25T08:08:44.886Z,52.92
2018-09-25T08:11:03.582Z,53.74
2018-09-25T08:13:21.487Z,50.36
2018-09-25T08:15:39.636Z,50.17
2018-09-25T08:17:57.592Z,49.57
2018-09-25T08:20:15.571Z,49.71
2018-09-25T08:22:33.478Z,47.55
2018-09-25T08:24:51.419Z,47.39
2018-09-25T08:27:09.438Z,48.04
2018-09-25T08:29:27.396Z,47.69
2018-09-25T08:31:45.364Z,48.67
2018-09-25T08:34:03.258Z,47.59
2018-09-25T08:36:21.303Z,45.20
2018-09-25T08:38:39.259Z,44.60
2018-09-25T08:40:57.171Z,46.16
2018-09-25T08:43:15.255Z,46.84
2018-09-25T08:45:33.130Z,46.47
2018-09-25T08:47:50.971Z,45.72
2018-09-25T08:50:09.015Z,44.88
2018-09-25T08:52:26.914Z,46.00
2018-09-25T08:54:44.798Z,45.16
2018-09-25T08:57:02.766Z,44.57
2018-09-25T08:59:20.685Z,45.00
2018-09-25T09:01:45.224Z,46.16
2018-09-25T09:04:03.019Z,43.58
2018-09-25T09:06:20.858Z,42.36
2018-09-25T09:08:38.812Z,41.86
2018-09-25T09:10:56.563Z,40.33
2018-09-25T09:13:14.425Z,41.08
2018-09-25T09:15:32.239Z,41.03
2018-09-25T09:17:49.995Z,42.71
2018-09-25T09:20:08.076Z,40.24
2018-09-25T09:22:26.007Z,38.49
2018-09-25T09:24:44.025Z,38.63
2018-09-25T09:27:01.927Z,39.87
2018-09-25T09:29:19.796Z,37.93
2018-09-25T09:31:37.759Z,37.90
2018-09-25T09:33:55.610Z,39.26
2018-09-25T09:36:13.597Z,39.11
2018-09-25T09:38:31.444Z,40.38
2018-09-25T09:40:49.324Z,41.31
2018-09-25T09:43:07.295Z,40.23
2018-09-25T09:45:25.201Z,37.83
2018-09-25T09:47:43.019Z,39.31
2018-09-25T09:50:00.978Z,40.22
2018-09-25T09:52:18.801Z,38.81
2018-09-25T09:54:36.671Z,38.53
2018-09-25T09:56:54.598Z,39.14
2018-09-25T09:59:12.591Z,40.08
2018-09-25T10:01:30.579Z,38.30
2018-09-25T10:03:48.466Z,38.94
2018-09-25T10:06:06.432Z,38.25
2018-09-25T10:08:24.341Z,37.89
2018-09-25T10:10:42.362Z,38.00
2018-09-25T10:13:00.316Z,38.98
2018-09-25T10:15:18.248Z,38.49
2018-09-25T10:17:36.075Z,38.98
2018-09-25T10:19:53.979Z,36.64
2018-09-25T10:22:11.865Z,41.32
2018-09-25T10:24:29.803Z,39.89
2018-09-25T10:26:47.768Z,39.04
2018-09-25T10:29:05.838Z,40.77
2018-09-25T10:31:23.840Z,39.73
2018-09-25T10:33:41.815Z,39.59
2018-09-25T10:35:59.728Z,39.61
2018-09-25T10:38:17.780Z,39.08
2018-09-25T10:40:35.721Z,39.44
2018-09-25T10:42:53.530Z,38.57
2018-09-25T10:45:11.804Z,38.97
2018-09-25T10:47:29.803Z,39.02
2018-09-25T10:49:47.916Z,38.82
2018-09-25T10:52:05.728Z,38.00
2018-09-25T10:54:23.611Z,37.35
2018-09-25T10:56:41.435Z,36.85
2018-09-25T10:58:59.424Z,36.63
2018-09-25T11:01:17.391Z,38.34
2018-09-25T11:03:35.195Z,35.73
2018-09-25T11:05:53.127Z,34.30
2018-09-25T11:08:10.982Z,36.67
2018-09-25T11:10:28.912Z,35.62
2018-09-25T11:12:46.825Z,36.22
2018-09-25T11:15:04.696Z,38.47
2018-09-25T11:17:22.722Z,35.34
2018-09-25T11:19:40.795Z,36.24
2018-09-25T11:21:58.685Z,35.04
2018-09-25T11:24:16.490Z,35.94
2018-09-25T11:26:34.284Z,37.58
2018-09-25T11:28:52.179Z,36.10
2018-09-25T11:31:09.994Z,37.19
2018-09-25T11:33:27.828Z,37.26
2018-09-25T11:35:45.665Z,37.36
2018-09-25T11:38:03.572Z,37.07
2018-09-25T11:40:21.418Z,37.26
2018-09-25T11:42:39.347Z,38.37
2018-09-25T11:44:57.191Z,38.79
2018-09-25T11:47:15.095Z,38.64
2018-09-25T11:49:33.011Z,37.56
2018-09-25T11:51:50.906Z,38.23
2018-09-25T11:54:08.841Z,38.00
2018-09-25T11:56:26.860Z,37.42
2018-09-25T11:58:44.674Z,38.08
2018-09-25T12:01:02.485Z,37.35
2018-09-25T12:03:20.389Z,38.59
2018-09-25T12:05:38.314Z,38.29
2018-09-25T12:07:56.293Z,36.85
2018-09-25T12:10:14.198Z,37.07
2018-09-25T12:12:32.095Z,38.82
2018-09-25T12:14:49.974Z,37.41
2018-09-25T12:17:07.786Z,37.20
2018-09-25T12:19:25.544Z,38.49
2018-09-25T12:21:43.318Z,37.42
2018-09-25T12:24:01.379Z,36.72
2018-09-25T12:26:19.282Z,36.46
2018-09-25T12:28:37.233Z,38.08
2018-09-25T12:30:55.121Z,36.36
2018-09-25T12:33:13.043Z,35.51
2018-09-25T12:35:31.065Z,38.34
2018-09-25T12:37:49.142Z,35.64
2018-09-25T12:40:06.902Z,36.40
2018-09-25T12:42:24.777Z,35.29
2018-09-25T12:44:42.767Z,35.50
2018-09-25T12:47:00.755Z,37.25
2018-09-25T12:49:18.689Z,37.03
2018-09-25T12:51:36.611Z,36.56
2018-09-25T12:53:54.571Z,37.26
2018-09-25T12:56:12.604Z,38.86
2018-09-25T12:58:30.663Z,39.12
2018-09-25T13:00:48.660Z,36.51
2018-09-25T13:03:06.689Z,37.86
2018-09-25T13:05:24.590Z,36.92
2018-09-25T13:07:42.584Z,36.28
2018-09-25T13:10:00.584Z,37.51
2018-09-25T13:12:18.524Z,36.01
2018-09-25T13:14:36.321Z,36.23
2018-09-25T13:16:54.219Z,37.48
2018-09-25T13:19:12.352Z,35.97
2018-09-25T13:21:30.175Z,38.24
2018-09-25T13:23:48.137Z,36.37
2018-09-25T13:26:05.820Z,35.30
2018-09-25T13:28:23.761Z,34.81
2018-09-25T13:30:41.515Z,35.11
2018-09-25T13:32:59.524Z,36.75
2018-09-25T13:35:17.356Z,37.13
2018-09-25T13:37:35.135Z,36.71
2018-09-25T13:39:53.121Z,35.69
2018-09-25T13:42:11.062Z,37.33
2018-09-25T13:44:28.892Z,36.96
2018-09-25T13:46:46.745Z,37.17
2018-09-25T13:49:04.741Z,37.08
2018-09-25T13:51:22.676Z,36.92
2018-09-25T13:53:40.639Z,37.81
2018-09-25T13:55:58.681Z,37.43
2018-09-25T13:58:16.526Z,37.64
2018-09-25T14:00:34.543Z,37.61
2018-09-25T14:02:52.531Z,36.65
2018-09-25T14:05:10.410Z,35.49
2018-09-25T14:07:28.270Z,35.96
2018-09-25T14:09:46.413Z,35.01
2018-09-25T14:12:04.238Z,34.41
2018-09-25T14:14:22.253Z,35.27
2018-09-25T14:16:39.983Z,35.10
2018-09-25T14:18:57.882Z,36.67
2018-09-25T14:21:15.884Z,36.64
2018-09-25T14:23:33.741Z,36.34
2018-09-25T14:25:51.703Z,36.15
2018-09-25T14:28:09.739Z,36.22
2018-09-25T14:30:27.730Z,36.73
2018-09-25T14:32:45.711Z,35.59
2018-09-25T14:35:03.704Z,36.67
2018-09-25T14:37:21.719Z,36.34
2018-09-25T14:39:39.638Z,36.41
2018-09-25T14:41:57.541Z,36.28
2018-09-25T14:44:15.763Z,36.76
2018-09-25T14:46:33.798Z,35.67
2018-09-25T14:48:51.686Z,36.62
2018-09-25T14:51:09.583Z,36.02
2018-09-25T14:53:27.450Z,36.04
2018-09-25T14:55:45.429Z,35.50
2018-09-25T14:58:03.447Z,35.10
2018-09-25T15:00:21.388Z,35.71
2018-09-25T15:02:39.327Z,35.69
2018-09-25T15:04:57.400Z,36.44
2018-09-25T15:07:15.348Z,35.74
2018-09-25T15:09:33.195Z,35.51
2018-09-25T15:11:51.154Z,35.36
2018-09-25T15:14:09.042Z,34.39
2018-09-25T15:16:27.034Z,33.89
2018-09-25T15:18:45.008Z,34.70
2018-09-25T15:21:03.099Z,34.34
2018-09-25T15:23:20.939Z,34.42
2018-09-25T15:25:38.915Z,35.33
2018-09-25T15:27:56.790Z,34.67
2018-09-25T15:30:14.684Z,34.58
2018-09-25T15:32:32.611Z,35.00
2018-09-25T15:34:50.570Z,34.29
2018-09-25T15:37:08.395Z,34.83
2018-09-25T15:39:26.310Z,34.78
2018-09-25T15:41:44.275Z,34.47
2018-09-25T15:44:02.295Z,34.36
2018-09-25T15:46:20.278Z,35.27
2018-09-25T15:48:38.251Z,36.33
2018-09-25T15:50:56.080Z,36.09
2018-09-25T15:53:13.939Z,35.84
2018-09-25T15:55:31.841Z,34.47
2018-09-25T15:57:49.735Z,35.96
2018-09-25T16:00:07.600Z,36.24
2018-09-25T16:02:25.566Z,35.91
2018-09-25T16:04:43.481Z,35.70
2018-09-25T16:07:01.295Z,35.83
2018-09-25T16:09:19.111Z,35.72
2018-09-25T16:11:36.993Z,35.72
2018-09-25T16:13:54.898Z,36.57
2018-09-25T16:16:12.860Z,36.07
2018-09-25T16:18:30.782Z,34.92
2018-09-25T16:20:48.685Z,35.55
2018-09-25T16:23:06.642Z,36.26
2018-09-25T16:25:24.703Z,36.03
2018-09-25T16:27:42.600Z,36.25
2018-09-25T16:30:00.619Z,35.88
2018-09-25T16:32:18.606Z,37.60
2018-09-25T16:34:36.538Z,36.62
2018-09-25T16:36:54.450Z,37.81
2018-09-25T16:39:14.506Z,37.58
2018-09-25T16:41:32.259Z,37.37
2018-09-25T16:43:50.275Z,37.32
2018-09-25T16:46:08.072Z,36.88
2018-09-25T16:48:25.947Z,38.53
2018-09-25T16:50:43.931Z,37.07
2018-09-25T16:53:01.790Z,37.41
2018-09-25T16:55:19.626Z,37.70
2018-09-25T16:57:37.599Z,38.02
2018-09-25T16:59:55.487Z,39.57
2018-09-25T17:02:13.465Z,38.35
2018-09-25T17:04:31.495Z,40.05
2018-09-25T17:06:49.439Z,39.26
2018-09-25T17:09:07.366Z,39.43
2018-09-25T17:11:25.343Z,39.80
2018-09-25T17:13:43.095Z,40.47
2018-09-25T17:16:01.030Z,39.13
2018-09-25T17:18:19.016Z,39.47
2018-09-25T17:20:36.975Z,40.52
2018-09-25T17:22:54.971Z,39.87
2018-09-25T17:25:12.864Z,40.17
2018-09-25T17:27:30.723Z,40.46
2018-09-25T17:29:48.807Z,40.77
2018-09-25T17:32:06.806Z,40.88
2018-09-25T17:34:24.652Z,41.07
2018-09-25T17:36:42.659Z,41.73
2018-09-25T17:39:00.571Z,41.95
2018-09-25T17:41:18.433Z,42.51
2018-09-25T17:43:36.428Z,42.52
2018-09-25T17:45:54.388Z,42.92
2018-09-25T17:48:12.291Z,41.71
2018-09-25T17:50:30.216Z,42.07
2018-09-25T17:52:48.090Z,42.50
2018-09-25T17:55:06.020Z,42.65
2018-09-25T17:57:23.981Z,42.03
2018-09-25T17:59:41.767Z,42.99
2018-09-25T18:01:59.668Z,43.45
2018-09-25T18:04:17.509Z,43.54
2018-09-25T18:06:38.371Z,43.89
2018-09-25T18:08:56.331Z,44.42
2018-09-25T18:11:14.128Z,45.05
2018-09-25T18:13:32.149Z,45.67
2018-09-25T18:15:50.150Z,47.06
2018-09-25T18:18:08.156Z,49.09
2018-09-25T18:20:26.134Z,50.34
2018-09-25T18:22:43.987Z,51.28
2018-09-25T18:25:02.652Z,51.09
2018-09-25T18:27:20.620Z,51.07
2018-09-25T18:29:38.530Z,52.41
2018-09-25T18:31:56.380Z,52.85
2018-09-25T18:34:14.336Z,52.31
2018-09-25T18:36:32.306Z,53.63
2018-09-25T18:38:50.313Z,53.68
2018-09-25T18:41:08.336Z,54.97
2018-09-25T18:43:26.183Z,55.67
2018-09-25T18:45:44.103Z,56.25
2018-09-25T18:48:02.104Z,55.95
2018-09-25T18:50:20.089Z,56.87
2018-09-25T18:52:38.027Z,56.89
2018-09-25T18:54:55.922Z,56.81
2018-09-25T18:57:13.908Z,56.90
2018-09-25T18:59:31.833Z,56.76
2018-09-25T19:01:49.675Z,55.75
2018-09-25T19:04:07.660Z,54.54
2018-09-25T19:06:25.704Z,53.68
2018-09-25T19:08:43.668Z,53.86
2018-09-25T19:11:01.571Z,54.37
2018-09-25T19:13:19.294Z,55.13
2018-09-25T19:15:37.190Z,55.89
2018-09-25T19:17:55.113Z,55.92
2018-09-25T19:20:13.042Z,55.08
2018-09-25T19:22:30.927Z,56.18
2018-09-25T19:24:48.779Z,56.89
2018-09-25T19:27:06.664Z,57.00
2018-09-25T19:29:24.632Z,57.19
2018-09-25T19:31:42.535Z,57.43
2018-09-25T19:34:00.331Z,57.92
2018-09-25T19:36:18.364Z,57.75
2018-09-25T19:38:36.240Z,58.22
2018-09-25T19:40:54.170Z,58.96
2018-09-25T19:43:12.024Z,58.65
2018-09-25T19:45:29.779Z,59.71
2018-09-25T19:47:47.780Z,59.33
2018-09-25T19:50:05.726Z,59.74
2018-09-25T19:52:23.629Z,58.92
2018-09-25T19:54:41.603Z,59.83
2018-09-25T19:56:59.512Z,58.58
2018-09-25T19:59:17.446Z,58.46
2018-09-25T20:01:35.404Z,56.89
2018-09-25T20:03:53.396Z,57.86
2018-09-25T20:06:11.386Z,57.51
2018-09-25T20:08:29.264Z,57.82
2018-09-25T20:10:47.063Z,56.87
2018-09-25T20:13:04.847Z,56.95
2018-09-25T20:15:22.896Z,57.74
2018-09-25T20:17:40.805Z,57.32
2018-09-25T20:19:58.809Z,58.29
2018-09-25T20:22:16.655Z,57.87
2018-09-25T20:24:34.600Z,58.73
2018-09-25T20:26:52.428Z,58.80
2018-09-25T20:29:10.413Z,58.45
2018-09-25T20:31:28.291Z,58.64
2018-09-25T20:33:46.207Z,58.39
2018-09-25T20:36:04.120Z,58.49
2018-09-25T20:38:22.084Z,59.52
2018-09-25T20:40:40.119Z,58.94
2018-09-25T20:42:58.058Z,57.82
2018-09-25T20:45:15.932Z,58.41
2018-09-25T20:47:33.722Z,59.29
2018-09-25T20:49:51.616Z,59.33
2018-09-25T20:52:09.519Z,57.91
2018-09-25T20:54:27.510Z,57.38
2018-09-25T20:56:45.295Z,58.65
2018-09-25T20:59:03.101Z,59.18
2018-09-25T21:01:21.016Z,59.43
2018-09-25T21:03:38.932Z,59.40
2018-09-25T21:05:56.943Z,59.70
2018-09-25T21:08:14.942Z,59.77
2018-09-25T21:10:32.978Z,59.31
2018-09-25T21:12:50.936Z,60.24
2018-09-25T21:15:09.019Z,61.08
2018-09-25T21:17:26.943Z,61.09
2018-09-25T21:19:44.871Z,61.35
2018-09-25T21:22:02.820Z,63.15
2018-09-25T21:24:20.769Z,63.53
2018-09-25T21:26:38.762Z,62.96
2018-09-25T21:28:56.649Z,63.48
2018-09-25T21:31:14.456Z,63.05
2018-09-25T21:33:32.419Z,63.85
2018-09-25T21:35:50.314Z,64.29
2018-09-25T21:38:08.250Z,64.62
2018-09-25T21:40:26.199Z,64.12
2018-09-25T21:42:44.136Z,64.82
2018-09-25T21:45:02.001Z,63.95
2018-09-25T21:47:19.799Z,63.58
2018-09-25T21:49:37.764Z,63.52
2018-09-25T21:51:55.731Z,64.50
2018-09-25T21:54:13.621Z,64.20
2018-09-25T21:56:31.548Z,65.89
2018-09-25T21:58:49.530Z,65.55
2018-09-25T22:01:07.493Z,66.17
2018-09-25T22:03:25.655Z,66.19
2018-09-25T22:05:43.642Z,66.71
2018-09-25T22:08:01.448Z,66.77
2018-09-25T22:10:19.251Z,65.69
2018-09-25T22:12:37.071Z,65.44
2018-09-25T22:14:55.046Z,66.11
2018-09-25T22:17:12.802Z,66.47
2018-09-25T22:19:30.875Z,65.61
2018-09-25T22:21:48.681Z,65.88
2018-09-25T22:24:06.562Z,63.55
2018-09-25T22:26:24.478Z,61.88
2018-09-25T22:28:42.386Z,61.51
2018-09-25T22:31:00.355Z,60.01
2018-09-25T22:33:18.380Z,59.84
2018-09-25T22:35:36.177Z,59.09
2018-09-25T22:37:53.962Z,59.10
2018-09-25T22:40:11.822Z,59.00
2018-09-25T22:42:29.654Z,59.81
2018-09-25T22:44:47.562Z,59.71
2018-09-25T22:47:05.448Z,59.02
2018-09-25T22:49:23.266Z,58.89
2018-09-25T22:51:41.050Z,59.59
2018-09-25T22:53:59.046Z,59.06
2018-09-25T22:56:16.920Z,59.16
2018-09-25T22:58:34.878Z,58.29
2018-09-25T23:00:52.786Z,58.29
2018-09-25T23:03:10.703Z,59.02
2018-09-25T23:05:28.631Z,57.98
2018-09-25T23:07:46.523Z,58.50
2018-09-25T23:10:04.474Z,58.39
2018-09-25T23:12:22.237Z,58.41
2018-09-25T23:14:40.109Z,59.10
2018-09-25T23:16:58.030Z,59.41
2018-09-25T23:19:15.840Z,59.10
2018-09-25T23:21:33.607Z,59.44
2018-09-25T23:23:51.524Z,59.08
2018-09-25T23:26:09.426Z,59.20
2018-09-25T23:28:27.306Z,59.09
2018-09-25T23:30:45.151Z,60.14
2018-09-25T23:33:03.010Z,60.79
2018-09-25T23:35:20.772Z,60.57
2018-09-25T23:37:38.714Z,60.72
2018-09-25T23:40:00.419Z,61.09
2018-09-25T23:42:50.666Z,62.00
2018-09-25T23:45:08.703Z,61.24
2018-09-25T23:48:27.248Z,61.87
2018-09-25T23:50:45.119Z,62.54
2018-09-25T23:53:03.185Z,63.70
2018-09-25T23:55:22.290Z,62.98
2018-09-25T23:57:43.508Z,64.64
